Time;durP1;ratioP1;P1;durP2;ratioP2;P2;SDS_P1;SDS_P2;PMS_P1;PMS_P2;Temp;Humidity;BMP_temperature;BMP_pressure;BME280_temperature;BME280_humidity;BME280_pressure;Samples;Min_cycle;Max_cycle;Signal;HPM_P1;HPM_P2
2021/11/18 00:00:43;;;;;;;2.25;1.25;;;21.80;38.10;;;;;;5040266;28;20041;-57
2021/11/18 00:03:10;;;;;;;3.53;1.55;;;21.80;38.10;;;;;;5035829;28;20044;-55
2021/11/18 00:05:36;;;;;;;3.05;1.40;;;21.80;38.10;;;;;;5028382;28;20046;-56
2021/11/18 00:08:03;;;;;;;5.53;1.88;;;21.80;38.20;;;;;;5023397;28;20030;-56
2021/11/18 00:10:35;;;;;;;3.72;1.65;;;21.80;38.20;;;;;;5025327;28;20033;-59
2021/11/18 00:13:03;;;;;;;5.10;1.42;;;21.80;38.20;;;;;;5026235;28;20124;-58
2021/11/18 00:15:32;;;;;;;3.05;1.70;;;21.80;38.20;;;;;;5024838;28;20452;-55
2021/11/18 00:18:00;;;;;;;3.50;1.60;;;21.80;38.20;;;;;;5026728;28;20358;-58
2021/11/18 00:20:36;;;;;;;3.03;1.10;;;21.80;38.20;;;;;;5022763;28;20354;-58
2021/11/18 00:23:02;;;;;;;2.80;1.27;;;21.80;38.20;;;;;;5037205;28;20085;-58
2021/11/18 00:25:29;;;;;;;4.28;1.80;;;21.80;38.20;;;;;;5036247;28;20045;-58
2021/11/18 00:27:55;;;;;;;2.90;1.25;;;21.80;38.20;;;;;;5037335;28;20044;-58
2021/11/18 00:30:21;;;;;;;2.20;1.33;;;21.70;38.10;;;;;;5030082;28;20113;-59
2021/11/18 00:32:48;;;;;;;3.30;1.48;;;21.70;38.10;;;;;;5021578;28;20025;-56
2021/11/18 00:35:17;;;;;;;2.72;1.52;;;21.70;38.10;;;;;;5032136;28;20100;-59
2021/11/18 00:37:46;;;;;;;2.78;1.30;;;21.70;38.10;;;;;;5016977;28;20029;-60
2021/11/18 00:40:15;;;;;;;2.45;1.45;;;21.70;38.10;;;;;;5018051;28;20437;-59
2021/11/18 00:42:41;;;;;;;3.70;1.63;;;21.70;38.10;;;;;;5022520;28;20038;-57
2021/11/18 00:45:08;;;;;;;2.88;1.40;;;21.70;38.10;;;;;;5017807;28;20037;-58
2021/11/18 00:47:34;;;;;;;3.33;1.50;;;21.70;38.10;;;;;;5016654;28;20026;-57
2021/11/18 00:50:00;;;;;;;4.15;1.85;;;21.70;38.10;;;;;;5016736;28;20107;-58
2021/11/18 00:52:28;;;;;;;3.13;1.38;;;21.70;38.10;;;;;;5016320;28;20420;-58
2021/11/18 00:54:54;;;;;;;3.63;1.55;;;21.70;38.10;;;;;;5017319;28;20050;-57
2021/11/18 00:57:20;;;;;;;3.03;1.50;;;21.70;38.10;;;;;;5017202;28;20038;-56
2021/11/18 00:59:46;;;;;;;2.95;1.30;;;21.70;38.00;;;;;;5018239;28;20092;-60
2021/11/18 01:02:14;;;;;;;3.05;1.40;;;21.70;38.00;;;;;;5035109;28;20030;-58
2021/11/18 01:04:41;;;;;;;3.03;1.30;;;21.70;38.00;;;;;;5030508;28;20061;-57
2021/11/18 01:07:08;;;;;;;3.60;1.45;;;21.70;38.00;;;;;;5016491;28;20037;-57
2021/11/18 01:09:33;;;;;;;3.20;1.33;;;21.70;38.00;;;;;;5022801;28;20029;-60
2021/11/18 01:11:59;;;;;;;4.90;1.45;;;21.70;38.00;;;;;;5031312;28;20440;-59
2021/11/18 01:14:26;;;;;;;5.35;1.42;;;21.60;38.00;;;;;;5035015;28;20034;-61
2021/11/18 01:16:54;;;;;;;2.78;1.38;;;21.60;38.00;;;;;;5035407;28;20048;-60
2021/11/18 01:19:24;;;;;;;3.60;1.58;;;21.60;38.00;;;;;;5033700;28;20025;-59
2021/11/18 01:21:51;;;;;;;3.35;1.60;;;21.70;38.00;;;;;;5016737;28;20032;-61
2021/11/18 01:24:17;;;;;;;3.17;1.55;;;21.60;37.90;;;;;;5016765;28;20053;-60
2021/11/18 01:27:02;;;;;;;4.65;1.33;;;21.60;37.90;;;;;;5019938;28;20479;-60
2021/11/18 01:29:30;;;;;;;2.58;1.42;;;21.60;38.00;;;;;;5015726;28;20421;-59
2021/11/18 01:31:56;;;;;;;2.70;1.30;;;21.60;38.00;;;;;;5033982;28;20029;-61
2021/11/18 01:34:27;;;;;;;3.25;1.40;;;21.60;38.00;;;;;;5022997;28;20053;-60
2021/11/18 01:36:53;;;;;;;2.85;1.48;;;21.60;38.60;;;;;;5015417;28;20453;-58
2021/11/18 01:39:19;;;;;;;3.20;1.60;;;21.60;37.90;;;;;;5026110;28;20041;-60
2021/11/18 01:41:45;;;;;;;3.15;1.55;;;21.60;37.90;;;;;;5022664;28;20026;-57
2021/11/18 01:44:31;;;;;;;2.30;1.25;;;21.60;37.90;;;;;;5034232;28;20120;-59
2021/11/18 01:46:58;;;;;;;3.53;1.40;;;21.60;37.90;;;;;;5027235;28;20461;-59
2021/11/18 01:49:25;;;;;;;2.42;1.20;;;21.60;38.00;;;;;;5015099;28;20034;-60
2021/11/18 01:51:55;;;;;;;3.22;1.30;;;21.60;37.90;;;;;;5027991;28;20445;-57
2021/11/18 01:54:26;;;;;;;1.95;1.15;;;21.60;37.90;;;;;;5015140;28;20048;-59
2021/11/18 01:56:53;;;;;;;3.22;1.15;;;21.60;37.90;;;;;;5020259;28;20037;-60
2021/11/18 01:59:27;;;;;;;3.40;1.20;;;21.60;37.90;;;;;;5034191;28;20029;-60
2021/11/18 02:02:14;;;;;;;3.05;1.30;;;21.60;37.90;;;;;;5026685;28;20037;-58
2021/11/18 02:05:31;;;;;;;3.65;1.40;;;21.50;37.80;;;;;;5004977;28;20393;-60
2021/11/18 02:08:02;;;;;;;3.22;1.10;;;21.50;37.80;;;;;;5032767;28;20056;-58
2021/11/18 02:10:51;;;;;;;2.78;1.40;;;21.50;37.90;;;;;;5025680;28;20044;-57
2021/11/18 02:13:19;;;;;;;3.35;1.17;;;21.50;37.90;;;;;;5016654;28;20048;-59
2021/11/18 02:15:52;;;;;;;2.58;1.17;;;21.50;37.90;;;;;;5024800;28;20421;-59
2021/11/18 02:18:25;;;;;;;2.72;1.20;;;21.50;37.90;;;;;;5033947;28;20449;-56
2021/11/18 02:20:55;;;;;;;;;;;21.50;37.90;;;;;;5030415;28;20025;-59
2021/11/18 02:23:24;;;;;;;2.30;1.08;;;21.50;37.90;;;;;;5031144;28;19920;-59
2021/11/18 02:25:53;;;;;;;3.58;1.30;;;21.50;38.00;;;;;;5014922;28;20033;-59
2021/11/18 02:28:22;;;;;;;2.53;1.33;;;21.50;37.90;;;;;;5019663;28;20042;-57
2021/11/18 02:30:49;;;;;;;2.47;1.45;;;21.50;37.90;;;;;;4998404;28;20026;-61
2021/11/18 02:33:17;;;;;;;2.35;1.30;;;21.40;37.90;;;;;;5027121;28;20029;-60
2021/11/18 02:35:46;;;;;;;2.75;1.20;;;21.50;37.90;;;;;;5020098;28;20072;-57
2021/11/18 02:38:12;;;;;;;2.60;1.20;;;21.50;37.90;;;;;;5020112;28;20129;-59
2021/11/18 02:40:41;;;;;;;3.67;1.40;;;21.50;37.90;;;;;;5027094;28;20074;-59
2021/11/18 02:43:08;;;;;;;2.70;1.00;;;21.50;37.90;;;;;;5029970;28;20025;-58
2021/11/18 02:45:36;;;;;;;2.90;1.25;;;21.50;37.90;;;;;;5033849;28;20595;-60
2021/11/18 02:48:03;;;;;;;2.55;1.33;;;21.40;37.90;;;;;;5033418;28;20061;-58
2021/11/18 02:50:34;;;;;;;2.15;1.00;;;21.50;37.90;;;;;;5015131;28;20029;-60
2021/11/18 02:53:01;;;;;;;3.30;1.50;;;21.40;37.80;;;;;;5029245;28;20025;-58
2021/11/18 02:55:32;;;;;;;3.42;1.27;;;21.50;37.90;;;;;;5027605;28;20057;-57
2021/11/18 02:57:58;;;;;;;1.98;1.20;;;21.40;37.80;;;;;;5024052;28;20057;-57
2021/11/18 03:00:28;;;;;;;3.10;1.27;;;21.40;37.90;;;;;;5025847;28;20044;-58
2021/11/18 03:02:54;;;;;;;2.53;1.17;;;21.40;37.90;;;;;;5029856;28;20492;-59
2021/11/18 03:05:20;;;;;;;3.97;1.38;;;21.50;37.90;;;;;;5033009;28;20404;-59
2021/11/18 03:07:50;;;;;;;3.15;1.20;;;21.50;37.90;;;;;;5026000;28;20060;-57
2021/11/18 03:10:19;;;;;;;3.53;1.40;;;21.40;37.90;;;;;;5026339;28;20112;-59
2021/11/18 03:12:46;;;;;;;2.83;1.40;;;21.40;37.90;;;;;;5026238;28;20072;-59
2021/11/18 03:15:14;;;;;;;3.10;1.38;;;21.40;37.90;;;;;;5022252;28;20357;-59
2021/11/18 03:17:41;;;;;;;2.70;1.30;;;21.40;37.90;;;;;;5026881;28;20117;-55
2021/11/18 03:20:27;;;;;;;3.38;1.35;;;21.40;37.90;;;;;;5021138;28;20091;-59
2021/11/18 03:22:54;;;;;;;2.65;1.20;;;21.40;37.90;;;;;;5015027;28;20034;-59
2021/11/18 03:25:24;;;;;;;2.50;1.30;;;21.40;37.90;;;;;;5019385;28;20041;-57
2021/11/18 03:27:53;;;;;;;3.80;1.52;;;21.40;37.90;;;;;;5033438;28;20095;-57
2021/11/18 03:30:26;;;;;;;2.92;1.30;;;21.40;37.90;;;;;;5027551;28;20030;-60
2021/11/18 03:32:55;;;;;;;3.17;1.42;;;21.40;37.90;;;;;;5013501;28;20030;-59
2021/11/18 03:35:24;;;;;;;2.40;1.30;;;21.40;37.90;;;;;;5015116;28;20104;-59
2021/11/18 03:37:52;;;;;;;3.42;1.63;;;21.40;38.00;;;;;;5013878;28;20030;-55
2021/11/18 03:40:19;;;;;;;3.05;1.40;;;21.40;38.00;;;;;;5023653;28;20097;-58
2021/11/18 03:42:47;;;;;;;3.10;1.20;;;21.40;38.00;;;;;;5026440;28;20021;-57
2021/11/18 03:45:19;;;;;;;2.85;1.13;;;21.40;38.00;;;;;;5032072;28;20061;-61
2021/11/18 03:47:45;;;;;;;2.47;1.25;;;21.40;38.10;;;;;;5033710;28;20036;-58
2021/11/18 03:50:12;;;;;;;3.65;1.50;;;21.40;38.10;;;;;;5014503;28;20026;-59
2021/11/18 03:52:45;;;;;;;1.98;0.95;;;21.40;38.00;;;;;;5013500;28;20037;-57
2021/11/18 03:55:14;;;;;;;2.72;1.20;;;21.40;38.10;;;;;;5030471;28;20050;-60
2021/11/18 03:57:44;;;;;;;3.60;1.38;;;21.40;38.10;;;;;;5030921;28;20041;-59
2021/11/18 04:00:22;;;;;;;3.55;1.58;;;21.40;38.10;;;;;;5018432;28;20033;-59
2021/11/18 04:02:50;;;;;;;2.90;1.40;;;21.40;38.10;;;;;;5019562;28;20041;-58
2021/11/18 04:05:25;;;;;;;2.60;1.48;;;21.40;38.10;;;;;;5017106;28;20026;-59
2021/11/18 04:07:51;;;;;;;2.38;1.27;;;21.40;38.10;;;;;;5016503;28;20105;-59
2021/11/18 04:10:22;;;;;;;1.88;1.17;;;21.40;38.20;;;;;;5025901;28;20068;-59
2021/11/18 04:12:49;;;;;;;2.65;1.30;;;21.40;38.20;;;;;;5020825;28;20087;-58
2021/11/18 04:15:15;;;;;;;4.20;1.65;;;21.40;38.20;;;;;;5024996;28;20372;-57
2021/11/18 04:17:42;;;;;;;4.25;1.33;;;21.40;38.80;;;;;;5034145;28;20033;-60
2021/11/18 04:20:12;;;;;;;2.92;1.40;;;21.40;38.30;;;;;;5035928;28;20029;-58
2021/11/18 04:22:40;;;;;;;4.75;1.75;;;21.30;38.30;;;;;;5025867;28;20083;-59
2021/11/18 04:25:10;;;;;;;5.15;1.80;;;21.40;38.40;;;;;;5036848;28;20057;-60
2021/11/18 04:27:39;;;;;;;7.72;1.38;;;21.40;38.40;;;;;;5024444;28;20445;-59
2021/11/18 04:30:07;;;;;;;3.80;1.60;;;21.30;38.30;;;;;;5028312;28;20044;-58
2021/11/18 04:32:34;;;;;;;2.60;1.25;;;21.40;38.40;;;;;;5016294;28;20029;-60
2021/11/18 04:35:00;;;;;;;4.35;1.60;;;21.30;38.30;;;;;;5016983;28;20029;-59
2021/11/18 04:37:26;;;;;;;3.78;1.42;;;21.30;38.40;;;;;;5017101;28;20425;-58
2021/11/18 04:39:52;;;;;;;3.42;1.67;;;21.40;38.40;;;;;;5029739;28;20033;-59
2021/11/18 04:42:19;;;;;;;3.35;1.58;;;21.40;38.40;;;;;;5029189;28;20029;-57
2021/11/18 04:45:19;;;;;;;3.10;1.30;;;21.30;38.40;;;;;;5008113;28;20053;-57
2021/11/18 04:47:45;;;;;;;4.70;1.75;;;21.30;38.50;;;;;;5024887;28;20029;-59
2021/11/18 04:50:12;;;;;;;2.70;1.17;;;21.30;38.50;;;;;;5023006;28;20022;-59
2021/11/18 04:52:39;;;;;;;2.70;1.42;;;21.30;38.50;;;;;;5025877;28;20043;-59
2021/11/18 04:55:07;;;;;;;4.60;1.80;;;21.30;38.50;;;;;;5036527;28;20068;-59
2021/11/18 04:57:35;;;;;;;2.80;1.50;;;21.30;38.50;;;;;;5033960;28;20029;-58
2021/11/18 05:00:08;;;;;;;2.67;1.30;;;21.30;38.50;;;;;;5019414;28;20045;-58
2021/11/18 05:02:35;;;;;;;3.25;1.40;;;21.30;38.50;;;;;;5035192;28;20030;-58
2021/11/18 05:05:02;;;;;;;4.05;1.63;;;21.30;38.60;;;;;;5032065;28;20048;-59
2021/11/18 05:07:28;;;;;;;4.90;1.83;;;21.30;38.60;;;;;;5033244;28;20025;-57
2021/11/18 05:09:54;;;;;;;3.20;1.65;;;21.30;38.60;;;;;;5023968;28;20044;-56
2021/11/18 05:12:20;;;;;;;4.55;1.75;;;21.30;38.60;;;;;;5035028;28;20076;-59
2021/11/18 05:14:46;;;;;;;4.78;1.38;;;21.30;38.60;;;;;;5033873;28;20132;-59
2021/11/18 05:17:13;;;;;;;2.80;1.40;;;21.30;38.60;;;;;;5020182;28;20116;-58
2021/11/18 05:19:39;;;;;;;3.35;1.67;;;21.30;38.60;;;;;;5034272;28;20029;-58
2021/11/18 05:22:05;;;;;;;3.60;1.60;;;21.30;38.60;;;;;;5015796;28;20369;-59
2021/11/18 05:24:31;;;;;;;3.63;1.45;;;21.30;38.60;;;;;;5028257;28;20033;-60
2021/11/18 05:26:59;;;;;;;4.97;1.92;;;21.30;38.60;;;;;;5034952;28;20047;-59
2021/11/18 05:29:25;;;;;;;4.38;1.60;;;21.30;38.60;;;;;;5033836;28;20120;-56
2021/11/18 05:31:51;;;;;;;4.05;1.60;;;21.30;38.60;;;;;;5018753;28;20038;-57
2021/11/18 05:34:39;;;;;;;2.85;1.60;;;21.30;38.70;;;;;;5018089;28;20412;-60
2021/11/18 05:37:07;;;;;;;3.25;1.70;;;21.20;38.60;;;;;;5015376;28;20038;-59
2021/11/18 05:39:35;;;;;;;3.53;1.85;;;21.20;38.70;;;;;;5027792;28;20032;-57
2021/11/18 05:42:01;;;;;;;4.60;1.70;;;21.20;38.70;;;;;;5022015;28;20029;-60
2021/11/18 05:44:27;;;;;;;4.72;1.73;;;21.20;38.70;;;;;;5024193;28;20179;-59
2021/11/18 05:46:55;;;;;;;3.35;1.73;;;21.20;38.70;;;;;;5018874;28;20022;-60
2021/11/18 05:49:23;;;;;;;3.85;2.08;;;21.30;38.70;;;;;;5033128;28;20037;-59
2021/11/18 05:51:48;;;;;;;3.63;1.75;;;21.20;38.70;;;;;;5032773;28;20263;-55
2021/11/18 05:54:18;;;;;;;3.88;1.60;;;21.20;38.70;;;;;;5027261;28;20075;-56
2021/11/18 05:56:43;;;;;;;3.53;1.67;;;21.20;38.70;;;;;;5029856;28;20085;-58
2021/11/18 05:59:11;;;;;;;4.05;2.03;;;21.20;38.80;;;;;;5029418;28;20038;-59
2021/11/18 06:01:38;;;;;;;3.47;1.67;;;21.20;38.80;;;;;;5018084;28;20032;-59
2021/11/18 06:04:05;;;;;;;3.40;1.58;;;21.20;38.80;;;;;;5017335;28;20088;-57
2021/11/18 06:06:50;;;;;;;3.42;1.63;;;21.20;38.80;;;;;;5016170;28;20429;-58
2021/11/18 06:09:16;;;;;;;4.60;1.98;;;21.20;38.80;;;;;;5015696;28;20037;-59
2021/11/18 06:11:43;;;;;;;3.80;1.95;;;21.20;39.50;;;;;;5024815;28;20407;-57
2021/11/18 06:14:16;;;;;;;3.13;1.80;;;21.20;38.80;;;;;;5022139;28;20022;-58
2021/11/18 06:16:43;;;;;;;3.72;1.88;;;21.20;38.80;;;;;;5014559;28;20029;-53
2021/11/18 06:19:10;;;;;;;3.78;1.98;;;21.20;38.90;;;;;;5022445;28;20029;-58
2021/11/18 06:21:43;;;;;;;4.88;2.30;;;21.20;38.80;;;;;;5020981;28;20177;-60
2021/11/18 06:24:11;;;;;;;3.23;1.70;;;21.20;38.90;;;;;;5024575;28;20033;-62
2021/11/18 06:26:44;;;;;;;4.38;2.17;;;21.20;38.90;;;;;;5030840;28;20116;-56
2021/11/18 06:29:20;;;;;;;4.63;1.92;;;21.20;38.90;;;;;;5029450;28;20211;-57
2021/11/18 06:31:54;;;;;;;5.03;2.20;;;21.20;38.90;;;;;;5034474;28;20112;-58
2021/11/18 06:34:21;;;;;;;;;;;21.20;38.90;;;;;;5031844;28;20107;-58
2021/11/18 06:36:47;;;;;;;3.42;1.80;;;21.20;38.90;;;;;;5034300;28;20328;-59
2021/11/18 06:39:14;;;;;;;3.92;1.70;;;21.20;38.90;;;;;;5027836;28;20025;-58
2021/11/18 06:41:42;;;;;;;4.20;1.80;;;21.20;38.90;;;;;;5031883;28;20026;-56
2021/11/18 06:44:09;;;;;;;3.78;1.85;;;21.20;38.90;;;;;;5017056;28;20456;-61
2021/11/18 06:46:36;;;;;;;4.32;1.95;;;21.20;38.90;;;;;;5028240;28;20182;-57
2021/11/18 06:49:02;;;;;;;3.88;2.20;;;21.20;39.00;;;;;;5015721;28;20049;-59
2021/11/18 06:51:28;;;;;;;4.68;2.03;;;21.10;38.90;;;;;;5019375;28;20041;-59
2021/11/18 06:53:57;;;;;;;4.30;2.20;;;21.20;38.90;;;;;;5017590;28;20042;-59
2021/11/18 06:56:27;;;;;;;4.57;2.08;;;21.20;38.90;;;;;;5016483;28;20220;-57
2021/11/18 06:58:55;;;;;;;4.50;2.20;;;21.20;38.90;;;;;;5018177;28;20030;-56
2021/11/18 07:01:22;;;;;;;5.13;2.63;;;21.20;39.00;;;;;;5021985;28;20125;-58
2021/11/18 07:03:48;;;;;;;5.60;1.90;;;21.10;38.90;;;;;;5025948;28;20105;-58
2021/11/18 07:06:18;;;;;;;5.30;2.42;;;21.10;39.00;;;;;;5019211;28;20037;-56
2021/11/18 07:08:45;;;;;;;5.55;2.15;;;21.20;39.00;;;;;;5026138;28;20102;-59
2021/11/18 07:11:13;;;;;;;7.22;2.55;;;21.10;39.00;;;;;;5022395;28;20030;-57
2021/11/18 07:13:42;;;;;;;7.07;2.22;;;21.10;39.00;;;;;;5025693;28;20105;-55
2021/11/18 07:16:29;;;;;;;5.32;2.33;;;21.10;39.00;;;;;;5032152;28;20135;-58
2021/11/18 07:18:55;;;;;;;5.28;2.53;;;21.10;39.00;;;;;;5031982;28;20025;-58
2021/11/18 07:21:23;;;;;;;5.65;2.63;;;21.10;39.00;;;;;;5014308;28;20125;-59
2021/11/18 07:23:52;;;;;;;4.78;2.10;;;21.10;39.00;;;;;;5026533;28;20057;-53
2021/11/18 07:26:18;;;;;;;4.55;2.65;;;21.10;39.00;;;;;;5014124;28;20137;-58
2021/11/18 07:28:45;;;;;;;5.53;2.25;;;21.10;39.10;;;;;;5023700;28;20030;-56
2021/11/18 07:31:14;;;;;;;5.25;2.60;;;21.10;39.20;;;;;;5028093;28;20486;-56
2021/11/18 07:33:46;;;;;;;5.68;3.00;;;21.10;39.20;;;;;;5029054;28;20038;-59
2021/11/18 07:36:13;;;;;;;6.22;2.78;;;21.10;39.30;;;;;;5030148;28;20041;-59
2021/11/18 07:38:40;;;;;;;5.18;2.60;;;21.20;39.40;;;;;;5034145;28;20022;-56
2021/11/18 07:41:08;;;;;;;4.70;2.55;;;21.20;39.40;;;;;;5037109;28;20025;-54
2021/11/18 07:43:38;;;;;;;4.90;2.53;;;21.20;39.40;;;;;;5031021;28;20044;-56
2021/11/18 07:46:27;;;;;;;5.55;2.50;;;21.30;39.40;;;;;;5017414;28;20449;-54
2021/11/18 07:48:59;;;;;;;6.60;2.78;;;21.40;39.30;;;;;;5017437;28;20041;-53
2021/11/18 07:51:31;;;;;;;5.60;2.63;;;21.40;39.30;;;;;;5028647;28;20448;-54
2021/11/18 07:53:57;;;;;;;5.90;2.47;;;21.50;39.30;;;;;;5035382;28;20119;-56
2021/11/18 07:56:25;;;;;;;4.90;2.60;;;21.60;39.30;;;;;;5034985;28;20053;-51
2021/11/18 07:58:51;;;;;;;4.47;2.50;;;21.70;39.20;;;;;;5036924;28;20333;-54
2021/11/18 08:01:19;;;;;;;5.00;2.55;;;21.80;39.10;;;;;;5027332;28;20364;-57
2021/11/18 08:03:45;;;;;;;4.72;2.47;;;21.90;39.00;;;;;;5025452;28;20037;-57
2021/11/18 08:06:26;;;;;;;4.85;2.60;;;21.90;38.90;;;;;;5019067;28;20073;-58
2021/11/18 08:09:05;;;;;;;4.72;2.30;;;22.00;38.90;;;;;;5016915;28;20026;-58
2021/11/18 08:11:41;;;;;;;5.18;2.58;;;22.00;38.80;;;;;;5029254;28;20110;-58
2021/11/18 08:14:08;;;;;;;4.95;2.50;;;22.10;38.70;;;;;;5035314;28;20045;-58
2021/11/18 08:16:35;;;;;;;5.45;2.78;;;22.20;38.60;;;;;;5027217;28;20361;-57
2021/11/18 08:19:04;;;;;;;4.80;2.13;;;22.30;38.60;;;;;;5021509;28;20029;-56
2021/11/18 08:21:31;;;;;;;3.97;2.35;;;22.40;38.50;;;;;;5022417;28;20401;-53
2021/11/18 08:23:58;;;;;;;4.90;2.30;;;22.40;38.40;;;;;;5031977;28;20349;-55
2021/11/18 08:26:29;;;;;;;4.72;2.83;;;22.50;38.30;;;;;;5017346;28;20449;-53
2021/11/18 08:28:56;;;;;;;6.50;3.03;;;22.50;38.20;;;;;;5021471;28;20361;-57
2021/11/18 08:31:26;;;;;;;5.72;2.70;;;22.60;38.10;;;;;;5016321;28;20537;-55
2021/11/18 08:34:10;;;;;;;6.28;2.70;;;22.70;38.10;;;;;;5018009;28;20377;-55
2021/11/18 08:36:37;;;;;;;5.22;2.75;;;22.70;38.00;;;;;;5018560;28;20037;-52
2021/11/18 08:39:11;;;;;;;4.82;2.45;;;22.80;37.90;;;;;;5017582;28;20030;-53
2021/11/18 08:41:37;;;;;;;5.88;2.95;;;22.80;37.80;;;;;;5015416;28;20037;-56
2021/11/18 08:44:04;;;;;;;7.15;3.08;;;22.90;37.80;;;;;;5021365;28;20105;-55
2021/11/18 08:46:30;;;;;;;5.13;2.95;;;22.90;37.70;;;;;;5017270;28;20053;-54
2021/11/18 08:49:01;;;;;;;5.15;3.03;;;23.00;37.70;;;;;;5019881;28;20017;-54
2021/11/18 08:51:36;;;;;;;8.02;3.45;;;23.00;37.60;;;;;;5036131;28;20103;-54
2021/11/18 08:54:06;;;;;;;4.90;2.85;;;23.00;37.50;;;;;;5034024;28;20411;-53
2021/11/18 08:56:33;;;;;;;5.13;2.88;;;23.10;37.50;;;;;;5033126;28;20133;-56
2021/11/18 08:59:01;;;;;;;5.55;2.88;;;23.10;37.50;;;;;;5036069;28;20439;-54
2021/11/18 09:01:38;;;;;;;6.18;3.15;;;23.10;37.40;;;;;;5032939;28;20096;-54
2021/11/18 09:04:12;;;;;;;5.15;2.83;;;23.20;37.40;;;;;;5036389;28;20432;-54
2021/11/18 09:06:39;;;;;;;5.57;2.92;;;23.20;37.40;;;;;;5034061;28;20042;-53
2021/11/18 09:09:06;;;;;;;5.68;2.90;;;23.20;37.40;;;;;;5025914;28;20025;-52
2021/11/18 09:11:34;;;;;;;5.55;3.13;;;23.30;37.40;;;;;;5021566;28;20036;-54
2021/11/18 09:14:02;;;;;;;4.65;3.00;;;23.20;37.30;;;;;;5035513;28;20030;-54
2021/11/18 09:16:32;;;;;;;5.43;3.05;;;23.30;37.30;;;;;;5029721;28;20115;-55
2021/11/18 09:19:09;;;;;;;5.40;2.85;;;23.30;37.30;;;;;;5035546;28;20095;-55
2021/11/18 09:21:37;;;;;;;3.97;2.75;;;23.30;37.30;;;;;;5033902;28;20356;-55
2021/11/18 09:24:05;;;;;;;5.78;3.30;;;23.30;37.30;;;;;;5031824;28;20398;-58
2021/11/18 09:26:35;;;;;;;5.88;3.22;;;23.20;37.30;;;;;;5029153;28;20037;-53
2021/11/18 09:29:04;;;;;;;6.95;3.47;;;23.20;37.30;;;;;;5016289;28;20030;-56
2021/11/18 09:31:50;;;;;;;6.43;3.55;;;23.20;37.40;;;;;;5017853;28;20049;-56
2021/11/18 09:34:17;;;;;;;6.65;3.55;;;23.10;37.40;;;;;;5026778;28;20102;-54
2021/11/18 09:36:43;;;;;;;6.25;3.97;;;23.00;37.50;;;;;;5027347;28;20022;-59
2021/11/18 09:39:10;;;;;;;7.63;3.58;;;23.00;37.70;;;;;;5019905;28;20025;-56
2021/11/18 09:41:41;;;;;;;6.45;3.53;;;22.90;37.80;;;;;;5029083;28;20424;-55
2021/11/18 09:44:52;;;;;;;7.50;3.67;;;22.90;38.00;;;;;;5015506;28;20048;-57
2021/11/18 09:47:41;;;;;;;6.05;3.40;;;22.80;38.10;;;;;;5026815;28;20040;-57
2021/11/18 09:50:32;;;;;;;8.05;3.00;;;22.70;38.40;;;;;;5030696;28;20033;-59
2021/11/18 09:53:35;;;;;;;5.53;3.28;;;22.70;38.50;;;;;;5015329;28;20030;-57
2021/11/18 09:56:16;;;;;;;6.68;3.25;;;22.60;38.70;;;;;;5026595;28;20108;-60
2021/11/18 09:58:48;;;;;;;7.05;3.20;;;22.60;38.90;;;;;;5025817;28;20038;-61
2021/11/18 10:01:33;;;;;;;7.43;3.83;;;22.60;39.10;;;;;;5017873;28;20049;-58
2021/11/18 10:04:18;;;;;;;6.57;3.40;;;22.60;39.10;;;;;;5021444;28;20033;-60
2021/11/18 10:06:45;;;;;;;7.60;3.75;;;22.60;39.20;;;;;;5046902;28;20037;-59
2021/11/18 10:09:39;;;;;;;5.78;3.33;;;22.50;39.30;;;;;;5021072;28;20534;-61
2021/11/18 10:12:08;;;;;;;6.80;3.33;;;22.60;39.40;;;;;;5017135;28;20026;-59
2021/11/18 10:15:01;;;;;;;5.97;3.33;;;22.50;39.40;;;;;;5018246;28;20037;-60
2021/11/18 10:17:46;;;;;;;7.32;3.45;;;22.60;39.40;;;;;;5019540;28;20030;-60
2021/11/18 10:20:25;;;;;;;7.45;3.28;;;22.60;39.50;;;;;;5018078;28;20018;-57
2021/11/18 10:22:59;;;;;;;5.75;2.90;;;22.50;39.50;;;;;;5022779;28;20029;-60
2021/11/18 10:25:28;;;;;;;;;;;22.60;39.50;;;;;;5023065;28;20076;-61
2021/11/18 10:28:20;;;;;;;4.90;2.60;;;22.50;39.50;;;;;;5023231;28;19921;-59
2021/11/18 10:31:09;;;;;;;6.97;2.83;;;22.50;39.50;;;;;;5023714;28;20029;-61
2021/11/18 10:33:47;;;;;;;6.03;2.60;;;22.60;39.60;;;;;;5027239;28;20038;-60
2021/11/18 10:36:40;;;;;;;5.28;2.75;;;22.60;39.60;;;;;;5020260;28;20357;-60
2021/11/18 10:39:18;;;;;;;6.95;3.28;;;22.60;39.70;;;;;;5022365;28;20030;-59
2021/11/18 10:41:58;;;;;;;6.78;2.90;;;22.50;40.30;;;;;;5022289;28;20030;-60
2021/11/18 10:44:42;;;;;;;5.00;2.60;;;22.60;39.70;;;;;;5024066;28;20155;-60
2021/11/18 10:47:16;;;;;;;5.22;2.55;;;22.50;39.70;;;;;;5019162;28;20102;-61
2021/11/18 10:49:50;;;;;;;6.60;3.20;;;22.50;39.70;;;;;;5017275;28;20030;-53
2021/11/18 10:52:36;;;;;;;7.45;3.55;;;22.50;39.70;;;;;;5017044;28;20528;-52
2021/11/18 10:55:27;;;;;;;13.65;6.13;;;22.50;39.80;;;;;;5023123;28;20053;-59
2021/11/18 10:58:04;;;;;;;20.55;9.65;;;22.50;40.90;;;;;;5027252;28;20091;-55
2021/11/18 11:00:43;;;;;;;25.77;10.73;;;22.50;42.30;;;;;;5021544;28;20064;-54
2021/11/18 11:03:31;;;;;;;27.23;11.48;;;22.60;44.10;;;;;;5023791;28;20112;-49
2021/11/18 11:06:21;;;;;;;20.58;9.38;;;22.60;44.20;;;;;;5016210;28;20041;-57
2021/11/18 11:09:04;;;;;;;15.02;8.13;;;22.60;43.90;;;;;;5020468;28;20034;-57
2021/11/18 11:11:45;;;;;;;15.60;7.03;;;22.60;43.40;;;;;;5020053;28;20472;-56
2021/11/18 11:14:38;;;;;;;11.02;5.13;;;22.70;42.80;;;;;;5020933;28;20075;-58
2021/11/18 11:17:25;;;;;;;10.95;4.75;;;22.60;42.30;;;;;;5019175;28;20030;-58
2021/11/18 11:20:06;;;;;;;7.82;4.00;;;22.60;42.00;;;;;;5023244;28;20108;-54
2021/11/18 11:22:47;;;;;;;8.00;4.10;;;22.60;41.70;;;;;;5019238;28;20472;-56
2021/11/18 11:25:32;;;;;;;8.18;3.80;;;22.60;41.50;;;;;;5027630;28;20037;-55
2021/11/18 11:28:25;;;;;;;8.05;4.10;;;22.60;41.40;;;;;;5020040;28;20467;-55
2021/11/18 11:31:18;;;;;;;7.97;3.63;;;22.60;41.30;;;;;;5021683;28;20070;-55
2021/11/18 11:34:13;;;;;;;7.60;3.45;;;22.60;41.20;;;;;;5016399;28;20030;-54
2021/11/18 11:36:51;;;;;;;11.07;3.42;;;22.60;41.10;;;;;;5022896;28;20375;-55
2021/11/18 11:39:43;;;;;;;7.57;3.67;;;22.60;41.20;;;;;;5020315;28;20041;-51
2021/11/18 11:42:34;;;;;;;10.85;3.55;;;22.60;41.10;;;;;;5019018;28;20045;-52
2021/11/18 11:45:28;;;;;;;8.75;3.40;;;22.50;41.10;;;;;;5013788;28;20361;-49
2021/11/18 11:48:02;;;;;;;6.22;3.20;;;22.60;41.10;;;;;;5024155;28;20021;-55
2021/11/18 11:51:06;;;;;;;6.53;3.03;;;22.60;41.10;;;;;;5035658;28;20029;-60
2021/11/18 11:53:45;;;;;;;8.75;3.30;;;22.60;41.00;;;;;;5041385;28;20029;-59
2021/11/18 11:56:29;;;;;;;6.25;3.08;;;22.60;41.00;;;;;;5022495;28;20133;-54
2021/11/18 11:59:00;;;;;;;10.27;3.00;;;22.60;41.00;;;;;;5020101;28;20033;-59
2021/11/18 12:01:54;;;;;;;6.95;2.92;;;22.60;41.00;;;;;;5018387;28;20030;-58
2021/11/18 12:04:43;;;;;;;6.80;3.10;;;22.70;40.90;;;;;;5022701;28;20112;-57
2021/11/18 12:07:09;;;;;;;5.80;3.20;;;22.70;40.90;;;;;;5016633;28;20026;-61
2021/11/18 12:09:56;;;;;;;6.40;2.70;;;22.70;40.80;;;;;;5018633;28;20341;-52
2021/11/18 12:12:43;;;;;;;6.85;3.00;;;22.70;40.60;;;;;;5020370;28;20465;-55
2021/11/18 12:15:13;;;;;;;6.13;2.70;;;22.70;40.60;;;;;;5015210;28;20044;-60
2021/11/18 12:17:47;;;;;;;6.35;2.78;;;22.80;40.50;;;;;;5023484;28;20080;-56
2021/11/18 12:20:24;;;;;;;5.90;2.90;;;22.80;40.40;;;;;;5026259;28;20413;-60
2021/11/18 12:22:54;;;;;;;5.30;2.50;;;22.80;40.90;;;;;;5026627;28;20139;-60
2021/11/18 12:25:46;;;;;;;4.55;2.13;;;22.80;40.20;;;;;;5026248;28;20037;-60
2021/11/18 12:28:12;;;;;;;5.40;2.33;;;22.90;40.10;;;;;;5021900;28;20359;-60
2021/11/18 12:30:43;;;;;;;4.75;2.40;;;22.80;40.00;;;;;;5019582;28;20026;-60
2021/11/18 12:33:50;;;;;;;4.80;2.30;;;22.80;40.50;;;;;;5022553;28;20034;-60
2021/11/18 12:36:55;;;;;;;7.38;2.20;;;22.90;39.80;;;;;;5019016;28;20042;-61
2021/11/18 12:40:02;;;;;;;5.03;2.13;;;22.90;39.70;;;;;;5027212;28;20148;-60
2021/11/18 12:42:40;;;;;;;6.25;2.20;;;22.90;39.80;;;;;;4964095;28;20093;-59
2021/11/18 12:45:42;;;;;;;5.43;2.50;;;22.90;39.70;;;;;;5025512;28;20448;-57
2021/11/18 12:48:19;;;;;;;5.57;2.20;;;22.90;40.20;;;;;;5023807;28;20069;-61
2021/11/18 12:51:23;;;;;;;5.50;2.30;;;22.90;39.70;;;;;;5022156;28;20022;-62
2021/11/18 12:54:08;;;;;;;5.15;2.53;;;23.00;39.70;;;;;;5022100;28;20018;-62
2021/11/18 12:56:50;;;;;;;;;;;23.00;39.70;;;;;;5019963;28;20073;-62
2021/11/18 12:59:58;;;;;;;7.00;2.17;;;22.90;39.70;;;;;;5024469;28;19920;-61
2021/11/18 13:02:26;;;;;;;4.88;2.45;;;23.00;39.70;;;;;;4982772;28;20036;-61
2021/11/18 13:04:56;;;;;;;4.97;2.10;;;23.00;39.70;;;;;;5013714;28;20072;-61
2021/11/18 13:07:41;;;;;;;4.43;1.77;;;23.00;39.50;;;;;;5019092;28;20037;-61
2021/11/18 13:10:19;;;;;;;3.53;1.77;;;23.00;39.30;;;;;;5023272;28;20029;-60
2021/11/18 13:13:27;;;;;;;4.18;1.83;;;23.00;39.40;;;;;;5021563;28;20079;-60
2021/11/18 13:15:52;;;;;;;4.70;1.85;;;23.00;39.20;;;;;;4998932;28;20038;-60
2021/11/18 13:18:30;;;;;;;3.50;1.58;;;23.10;39.20;;;;;;5021806;28;20116;-63